Hillsboro, Texas
Current Conditions -  °F | °C
As of 11:15 AM on Sunday 23 Nov 2014 (Local Time) from KINJ Reporting Station
Clear Clear  
Wind Chill: 68°   Ceiling: Unl
Heat Index: 68°   Visibility: 10mi
Dew Point: 53°   Wind: 13mph
Humidity: 58%   Direction: 220°SW
Pressure: 29.51"   Gusts: NA
Location:  32.01°N, 97.13°W
Report Text: KINJ 231715Z AUTO 22011KT 10SM CLR 20/11 A2951 RMK AO2 T02000114
Loading
Personal Weather Stations






























Interactive Weather Map New forecast layout! Learn more

10-Day Weather Forecast

Advertisements
Track Severe Weather on mobile